sensor_id;sensor_type;location;lat;lon;timestamp;P1;durP1;ratioP1;P2;durP2;ratioP2
53409;SDS011;66590;50.734;4.246;2023-07-20T00:02:15;4.78;;;3.45;;
53409;SDS011;66590;50.734;4.246;2023-07-20T00:04:41;7.22;;;3.45;;
53409;SDS011;66590;50.734;4.246;2023-07-20T00:07:08;6.80;;;3.50;;
53409;SDS011;66590;50.734;4.246;2023-07-20T00:09:36;9.02;;;3.70;;
53409;SDS011;66590;50.734;4.246;2023-07-20T00:12:04;6.53;;;3.58;;
53409;SDS011;66590;50.734;4.246;2023-07-20T00:14:32;8.52;;;4.22;;
53409;SDS011;66590;50.734;4.246;2023-07-20T00:16:59;7.10;;;3.40;;
53409;SDS011;66590;50.734;4.246;2023-07-20T00:19:26;8.50;;;3.85;;
53409;SDS011;66590;50.734;4.246;2023-07-20T00:21:54;6.25;;;3.50;;
53409;SDS011;66590;50.734;4.246;2023-07-20T00:24:21;10.90;;;4.32;;
53409;SDS011;66590;50.734;4.246;2023-07-20T00:26:49;5.97;;;3.55;;
53409;SDS011;66590;50.734;4.246;2023-07-20T00:29:18;8.88;;;3.80;;
53409;SDS011;66590;50.734;4.246;2023-07-20T00:31:45;7.32;;;4.10;;
53409;SDS011;66590;50.734;4.246;2023-07-20T00:34:13;6.65;;;3.63;;
53409;SDS011;66590;50.734;4.246;2023-07-20T00:36:40;5.88;;;3.92;;
53409;SDS011;66590;50.734;4.246;2023-07-20T00:39:07;6.63;;;3.50;;
53409;SDS011;66590;50.734;4.246;2023-07-20T00:41:34;5.57;;;3.92;;
53409;SDS011;66590;50.734;4.246;2023-07-20T00:44:01;6.43;;;3.60;;
53409;SDS011;66590;50.734;4.246;2023-07-20T00:46:29;11.27;;;3.80;;
53409;SDS011;66590;50.734;4.246;2023-07-20T00:48:57;8.68;;;3.70;;
53409;SDS011;66590;50.734;4.246;2023-07-20T00:51:25;10.02;;;4.35;;
53409;SDS011;66590;50.734;4.246;2023-07-20T00:53:52;11.40;;;4.18;;
53409;SDS011;66590;50.734;4.246;2023-07-20T00:56:19;10.27;;;4.10;;
53409;SDS011;66590;50.734;4.246;2023-07-20T00:58:48;7.95;;;3.85;;
53409;SDS011;66590;50.734;4.246;2023-07-20T01:01:15;6.78;;;3.63;;
53409;SDS011;66590;50.734;4.246;2023-07-20T01:03:43;6.70;;;4.32;;
53409;SDS011;66590;50.734;4.246;2023-07-20T01:06:14;10.52;;;4.35;;
53409;SDS011;66590;50.734;4.246;2023-07-20T01:08:52;6.57;;;4.20;;
53409;SDS011;66590;50.734;4.246;2023-07-20T01:11:31;7.30;;;4.50;;
53409;SDS011;66590;50.734;4.246;2023-07-20T01:14:04;7.38;;;4.10;;
53409;SDS011;66590;50.734;4.246;2023-07-20T01:16:32;8.70;;;4.32;;
53409;SDS011;66590;50.734;4.246;2023-07-20T01:19:00;10.07;;;4.38;;
53409;SDS011;66590;50.734;4.246;2023-07-20T01:21:30;7.78;;;4.43;;
53409;SDS011;66590;50.734;4.246;2023-07-20T01:30:06;9.00;;;4.90;;
53409;SDS011;66590;50.734;4.246;2023-07-20T01:32:43;10.77;;;5.05;;
53409;SDS011;66590;50.734;4.246;2023-07-20T01:35:13;8.43;;;4.00;;
53409;SDS011;66590;50.734;4.246;2023-07-20T01:37:42;9.48;;;4.47;;
53409;SDS011;66590;50.734;4.246;2023-07-20T01:40:11;10.00;;;4.40;;
53409;SDS011;66590;50.734;4.246;2023-07-20T01:42:43;11.85;;;4.50;;
53409;SDS011;66590;50.734;4.246;2023-07-20T01:45:10;9.20;;;4.60;;
53409;SDS011;66590;50.734;4.246;2023-07-20T01:47:37;8.70;;;4.60;;
53409;SDS011;66590;50.734;4.246;2023-07-20T01:50:06;7.90;;;4.93;;
53409;SDS011;66590;50.734;4.246;2023-07-20T01:52:34;8.10;;;5.10;;
53409;SDS011;66590;50.734;4.246;2023-07-20T01:55:01;9.52;;;4.68;;
53409;SDS011;66590;50.734;4.246;2023-07-20T01:57:28;9.80;;;4.80;;
53409;SDS011;66590;50.734;4.246;2023-07-20T01:59:55;9.77;;;4.97;;
53409;SDS011;66590;50.734;4.246;2023-07-20T02:02:23;8.60;;;4.70;;
53409;SDS011;66590;50.734;4.246;2023-07-20T02:04:52;8.90;;;4.82;;
53409;SDS011;66590;50.734;4.246;2023-07-20T02:07:21;12.18;;;5.22;;
53409;SDS011;66590;50.734;4.246;2023-07-20T02:09:48;15.10;;;5.10;;
53409;SDS011;66590;50.734;4.246;2023-07-20T02:12:15;10.50;;;5.38;;
53409;SDS011;66590;50.734;4.246;2023-07-20T02:14:41;10.30;;;5.03;;
53409;SDS011;66590;50.734;4.246;2023-07-20T02:17:09;14.52;;;5.55;;
53409;SDS011;66590;50.734;4.246;2023-07-20T02:19:36;9.13;;;5.03;;
53409;SDS011;66590;50.734;4.246;2023-07-20T02:22:03;13.32;;;5.55;;
53409;SDS011;66590;50.734;4.246;2023-07-20T02:24:32;9.85;;;5.65;;
53409;SDS011;66590;50.734;4.246;2023-07-20T02:26:59;12.13;;;5.88;;
53409;SDS011;66590;50.734;4.246;2023-07-20T02:29:26;10.88;;;5.85;;
53409;SDS011;66590;50.734;4.246;2023-07-20T02:31:53;10.35;;;5.60;;
53409;SDS011;66590;50.734;4.246;2023-07-20T02:34:20;8.80;;;5.55;;
53409;SDS011;66590;50.734;4.246;2023-07-20T02:36:47;16.58;;;6.28;;
53409;SDS011;66590;50.734;4.246;2023-07-20T02:39:14;13.48;;;6.00;;
53409;SDS011;66590;50.734;4.246;2023-07-20T02:41:42;14.05;;;5.65;;
53409;SDS011;66590;50.734;4.246;2023-07-20T02:44:09;10.95;;;6.22;;
53409;SDS011;66590;50.734;4.246;2023-07-20T02:46:36;11.05;;;6.07;;
53409;SDS011;66590;50.734;4.246;2023-07-20T02:49:03;11.60;;;6.28;;
53409;SDS011;66590;50.734;4.246;2023-07-20T02:51:30;14.27;;;6.35;;
53409;SDS011;66590;50.734;4.246;2023-07-20T02:53:57;16.15;;;6.97;;
53409;SDS011;66590;50.734;4.246;2023-07-20T02:56:24;13.82;;;7.15;;
53409;SDS011;66590;50.734;4.246;2023-07-20T02:58:52;13.55;;;6.70;;
53409;SDS011;66590;50.734;4.246;2023-07-20T03:01:19;11.18;;;6.45;;
53409;SDS011;66590;50.734;4.246;2023-07-20T03:03:46;16.40;;;7.75;;
53409;SDS011;66590;50.734;4.246;2023-07-20T03:06:13;15.95;;;7.63;;
53409;SDS011;66590;50.734;4.246;2023-07-20T03:08:41;13.52;;;6.80;;
53409;SDS011;66590;50.734;4.246;2023-07-20T03:11:08;14.52;;;6.68;;
53409;SDS011;66590;50.734;4.246;2023-07-20T03:13:35;14.50;;;7.63;;
53409;SDS011;66590;50.734;4.246;2023-07-20T03:16:04;10.90;;;7.47;;
53409;SDS011;66590;50.734;4.246;2023-07-20T03:18:31;19.95;;;7.75;;
53409;SDS011;66590;50.734;4.246;2023-07-20T03:20:58;14.43;;;7.88;;
53409;SDS011;66590;50.734;4.246;2023-07-20T03:23:25;16.48;;;7.95;;
53409;SDS011;66590;50.734;4.246;2023-07-20T03:25:51;17.85;;;8.10;;
53409;SDS011;66590;50.734;4.246;2023-07-20T03:28:18;13.88;;;8.40;;
53409;SDS011;66590;50.734;4.246;2023-07-20T03:30:45;15.27;;;8.63;;
53409;SDS011;66590;50.734;4.246;2023-07-20T03:33:14;15.27;;;8.50;;
53409;SDS011;66590;50.734;4.246;2023-07-20T03:35:42;20.60;;;10.48;;
53409;SDS011;66590;50.734;4.246;2023-07-20T03:38:09;19.33;;;10.48;;
53409;SDS011;66590;50.734;4.246;2023-07-20T03:40:36;21.90;;;10.95;;
53409;SDS011;66590;50.734;4.246;2023-07-20T03:43:03;16.83;;;10.60;;
53409;SDS011;66590;50.734;4.246;2023-07-20T03:45:30;19.98;;;10.95;;
53409;SDS011;66590;50.734;4.246;2023-07-20T03:47:57;20.63;;;11.30;;
53409;SDS011;66590;50.734;4.246;2023-07-20T03:50:25;22.75;;;11.35;;
53409;SDS011;66590;50.734;4.246;2023-07-20T03:52:52;20.58;;;11.30;;
53409;SDS011;66590;50.734;4.246;2023-07-20T03:55:19;18.23;;;11.68;;
53409;SDS011;66590;50.734;4.246;2023-07-20T03:57:46;19.52;;;11.65;;
53409;SDS011;66590;50.734;4.246;2023-07-20T04:00:13;18.23;;;11.25;;
53409;SDS011;66590;50.734;4.246;2023-07-20T04:02:41;18.75;;;11.55;;
53409;SDS011;66590;50.734;4.246;2023-07-20T04:05:08;20.83;;;11.77;;
53409;SDS011;66590;50.734;4.246;2023-07-20T04:07:36;21.90;;;11.88;;
53409;SDS011;66590;50.734;4.246;2023-07-20T04:10:04;18.67;;;12.20;;
53409;SDS011;66590;50.734;4.246;2023-07-20T04:12:31;22.92;;;11.73;;
53409;SDS011;66590;50.734;4.246;2023-07-20T04:14:58;24.35;;;13.07;;
53409;SDS011;66590;50.734;4.246;2023-07-20T04:17:25;21.52;;;13.18;;
53409;SDS011;66590;50.734;4.246;2023-07-20T04:19:52;21.70;;;13.27;;
53409;SDS011;66590;50.734;4.246;2023-07-20T04:22:19;22.77;;;13.00;;
53409;SDS011;66590;50.734;4.246;2023-07-20T04:24:47;23.42;;;13.30;;
53409;SDS011;66590;50.734;4.246;2023-07-20T04:27:14;21.90;;;12.93;;
53409;SDS011;66590;50.734;4.246;2023-07-20T04:29:41;19.65;;;12.10;;
53409;SDS011;66590;50.734;4.246;2023-07-20T04:32:08;20.20;;;12.70;;
53409;SDS011;66590;50.734;4.246;2023-07-20T04:34:35;21.17;;;11.98;;
53409;SDS011;66590;50.734;4.246;2023-07-20T04:37:02;20.90;;;12.68;;
53409;SDS011;66590;50.734;4.246;2023-07-20T04:39:29;20.02;;;12.30;;
53409;SDS011;66590;50.734;4.246;2023-07-20T04:41:59;19.90;;;11.85;;
53409;SDS011;66590;50.734;4.246;2023-07-20T04:44:26;19.90;;;12.07;;
53409;SDS011;66590;50.734;4.246;2023-07-20T04:46:53;24.77;;;12.32;;
53409;SDS011;66590;50.734;4.246;2023-07-20T04:49:20;17.08;;;11.07;;
53409;SDS011;66590;50.734;4.246;2023-07-20T04:51:47;19.67;;;12.25;;
53409;SDS011;66590;50.734;4.246;2023-07-20T04:54:14;18.23;;;11.23;;
53409;SDS011;66590;50.734;4.246;2023-07-20T04:56:41;16.75;;;11.00;;
53409;SDS011;66590;50.734;4.246;2023-07-20T04:59:09;23.40;;;12.57;;
53409;SDS011;66590;50.734;4.246;2023-07-20T05:01:36;20.42;;;12.93;;
53409;SDS011;66590;50.734;4.246;2023-07-20T05:04:03;20.38;;;11.30;;
53409;SDS011;66590;50.734;4.246;2023-07-20T05:06:30;20.58;;;12.60;;
53409;SDS011;66590;50.734;4.246;2023-07-20T05:08:57;19.77;;;12.45;;
53409;SDS011;66590;50.734;4.246;2023-07-20T05:11:24;23.90;;;12.93;;
53409;SDS011;66590;50.734;4.246;2023-07-20T05:13:51;19.38;;;12.27;;
53409;SDS011;66590;50.734;4.246;2023-07-20T05:16:19;23.52;;;12.65;;
53409;SDS011;66590;50.734;4.246;2023-07-20T05:18:47;20.23;;;12.57;;
53409;SDS011;66590;50.734;4.246;2023-07-20T05:21:14;27.52;;;13.15;;
53409;SDS011;66590;50.734;4.246;2023-07-20T05:23:41;25.58;;;12.88;;
53409;SDS011;66590;50.734;4.246;2023-07-20T05:26:08;20.40;;;12.48;;
53409;SDS011;66590;50.734;4.246;2023-07-20T05:28:35;21.27;;;12.20;;
53409;SDS011;66590;50.734;4.246;2023-07-20T05:31:02;23.33;;;13.00;;
53409;SDS011;66590;50.734;4.246;2023-07-20T05:33:31;18.95;;;11.88;;
53409;SDS011;66590;50.734;4.246;2023-07-20T05:35:58;18.48;;;12.60;;
53409;SDS011;66590;50.734;4.246;2023-07-20T05:38:25;27.70;;;18.63;;
53409;SDS011;66590;50.734;4.246;2023-07-20T05:40:52;30.17;;;23.10;;
53409;SDS011;66590;50.734;4.246;2023-07-20T05:43:19;22.98;;;16.52;;
53409;SDS011;66590;50.734;4.246;2023-07-20T05:45:46;23.77;;;17.45;;
53409;SDS011;66590;50.734;4.246;2023-07-20T05:48:13;19.10;;;13.82;;
53409;SDS011;66590;50.734;4.246;2023-07-20T05:50:43;14.70;;;10.40;;
53409;SDS011;66590;50.734;4.246;2023-07-20T05:53:10;19.98;;;11.70;;
53409;SDS011;66590;50.734;4.246;2023-07-20T05:55:37;19.35;;;11.13;;
53409;SDS011;66590;50.734;4.246;2023-07-20T05:58:04;21.17;;;12.68;;
53409;SDS011;66590;50.734;4.246;2023-07-20T06:00:31;19.38;;;11.20;;
53409;SDS011;66590;50.734;4.246;2023-07-20T06:02:58;16.25;;;12.18;;
53409;SDS011;66590;50.734;4.246;2023-07-20T06:05:25;19.55;;;11.32;;
53409;SDS011;66590;50.734;4.246;2023-07-20T06:07:56;15.38;;;10.38;;
53409;SDS011;66590;50.734;4.246;2023-07-20T06:10:23;20.10;;;11.13;;
53409;SDS011;66590;50.734;4.246;2023-07-20T06:12:50;16.10;;;10.45;;
53409;SDS011;66590;50.734;4.246;2023-07-20T06:15:26;18.73;;;10.63;;
53409;SDS011;66590;50.734;4.246;2023-07-20T06:17:54;19.60;;;11.02;;
53409;SDS011;66590;50.734;4.246;2023-07-20T06:20:22;17.00;;;10.65;;
53409;SDS011;66590;50.734;4.246;2023-07-20T06:22:48;16.17;;;10.55;;
53409;SDS011;66590;50.734;4.246;2023-07-20T06:25:17;20.58;;;11.13;;
53409;SDS011;66590;50.734;4.246;2023-07-20T06:27:44;24.17;;;11.30;;
53409;SDS011;66590;50.734;4.246;2023-07-20T06:30:11;18.75;;;12.10;;
53409;SDS011;66590;50.734;4.246;2023-07-20T06:32:38;20.83;;;10.73;;
53409;SDS011;66590;50.734;4.246;2023-07-20T06:35:06;15.35;;;11.07;;
53409;SDS011;66590;50.734;4.246;2023-07-20T06:37:34;18.67;;;11.52;;
53409;SDS011;66590;50.734;4.246;2023-07-20T06:40:01;20.05;;;12.05;;
53409;SDS011;66590;50.734;4.246;2023-07-20T06:42:33;21.27;;;11.52;;
53409;SDS011;66590;50.734;4.246;2023-07-20T06:45:03;22.88;;;12.43;;
53409;SDS011;66590;50.734;4.246;2023-07-20T06:47:31;18.23;;;12.23;;
53409;SDS011;66590;50.734;4.246;2023-07-20T06:49:58;20.58;;;12.95;;
53409;SDS011;66590;50.734;4.246;2023-07-20T06:52:25;18.60;;;12.77;;
53409;SDS011;66590;50.734;4.246;2023-07-20T06:54:52;22.58;;;13.02;;
53409;SDS011;66590;50.734;4.246;2023-07-20T06:57:19;21.17;;;13.48;;
53409;SDS011;66590;50.734;4.246;2023-07-20T06:59:52;20.70;;;13.80;;
53409;SDS011;66590;50.734;4.246;2023-07-20T07:02:22;17.52;;;13.18;;
53409;SDS011;66590;50.734;4.246;2023-07-20T07:04:49;19.30;;;11.98;;
53409;SDS011;66590;50.734;4.246;2023-07-20T07:09:53;17.65;;;12.50;;
53409;SDS011;66590;50.734;4.246;2023-07-20T07:12:20;16.13;;;11.10;;
53409;SDS011;66590;50.734;4.246;2023-07-20T07:14:47;18.08;;;12.32;;
53409;SDS011;66590;50.734;4.246;2023-07-20T07:17:15;13.00;;;10.88;;
53409;SDS011;66590;50.734;4.246;2023-07-20T07:19:45;13.77;;;10.82;;
53409;SDS011;66590;50.734;4.246;2023-07-20T07:22:15;13.10;;;10.68;;
53409;SDS011;66590;50.734;4.246;2023-07-20T07:24:42;13.18;;;9.57;;
53409;SDS011;66590;50.734;4.246;2023-07-20T07:27:09;12.93;;;10.07;;
53409;SDS011;66590;50.734;4.246;2023-07-20T07:29:36;12.85;;;10.20;;
53409;SDS011;66590;50.734;4.246;2023-07-20T07:32:03;12.18;;;10.20;;
53409;SDS011;66590;50.734;4.246;2023-07-20T07:34:32;12.32;;;10.50;;
53409;SDS011;66590;50.734;4.246;2023-07-20T07:36:59;14.10;;;10.70;;
53409;SDS011;66590;50.734;4.246;2023-07-20T07:39:26;13.35;;;11.30;;
53409;SDS011;66590;50.734;4.246;2023-07-20T07:42:00;11.80;;;9.97;;
53409;SDS011;66590;50.734;4.246;2023-07-20T07:44:27;12.30;;;11.05;;
53409;SDS011;66590;50.734;4.246;2023-07-20T07:46:54;13.35;;;11.40;;
53409;SDS011;66590;50.734;4.246;2023-07-20T07:49:21;13.63;;;11.60;;
53409;SDS011;66590;50.734;4.246;2023-07-20T07:51:49;13.02;;;10.60;;
53409;SDS011;66590;50.734;4.246;2023-07-20T07:54:16;14.07;;;11.45;;
53409;SDS011;66590;50.734;4.246;2023-07-20T07:56:43;15.70;;;11.52;;
53409;SDS011;66590;50.734;4.246;2023-07-20T07:59:10;12.32;;;10.43;;
53409;SDS011;66590;50.734;4.246;2023-07-20T08:01:37;11.45;;;9.85;;
53409;SDS011;66590;50.734;4.246;2023-07-20T08:04:04;10.43;;;9.32;;
53409;SDS011;66590;50.734;4.246;2023-07-20T08:06:31;10.18;;;9.10;;
53409;SDS011;66590;50.734;4.246;2023-07-20T08:09:00;9.48;;;8.57;;
53409;SDS011;66590;50.734;4.246;2023-07-20T08:11:27;9.70;;;8.70;;
53409;SDS011;66590;50.734;4.246;2023-07-20T08:13:54;11.77;;;9.57;;
53409;SDS011;66590;50.734;4.246;2023-07-20T08:16:21;9.80;;;8.35;;
53409;SDS011;66590;50.734;4.246;2023-07-20T08:18:48;10.88;;;9.82;;
53409;SDS011;66590;50.734;4.246;2023-07-20T08:21:15;11.02;;;8.52;;
53409;SDS011;66590;50.734;4.246;2023-07-20T08:23:42;10.82;;;8.82;;
53409;SDS011;66590;50.734;4.246;2023-07-20T08:26:11;9.93;;;9.00;;
53409;SDS011;66590;50.734;4.246;2023-07-20T08:28:38;9.77;;;7.82;;
53409;SDS011;66590;50.734;4.246;2023-07-20T08:31:05;7.78;;;6.28;;
53409;SDS011;66590;50.734;4.246;2023-07-20T08:33:32;6.43;;;5.82;;
53409;SDS011;66590;50.734;4.246;2023-07-20T08:36:00;5.30;;;4.85;;
53409;SDS011;66590;50.734;4.246;2023-07-20T08:38:27;4.80;;;4.40;;
53409;SDS011;66590;50.734;4.246;2023-07-20T08:40:53;5.15;;;4.72;;
53409;SDS011;66590;50.734;4.246;2023-07-20T08:43:22;5.82;;;5.32;;
53409;SDS011;66590;50.734;4.246;2023-07-20T08:45:49;5.15;;;4.75;;
53409;SDS011;66590;50.734;4.246;2023-07-20T08:48:20;5.15;;;4.65;;
53409;SDS011;66590;50.734;4.246;2023-07-20T08:50:47;4.43;;;4.13;;
53409;SDS011;66590;50.734;4.246;2023-07-20T08:53:17;4.68;;;4.28;;
53409;SDS011;66590;50.734;4.246;2023-07-20T08:55:44;4.25;;;3.95;;
53409;SDS011;66590;50.734;4.246;2023-07-20T08:58:12;4.18;;;3.88;;
53409;SDS011;66590;50.734;4.246;2023-07-20T09:00:40;5.13;;;3.92;;
53409;SDS011;66590;50.734;4.246;2023-07-20T09:03:11;5.10;;;4.65;;
53409;SDS011;66590;50.734;4.246;2023-07-20T09:05:40;7.72;;;5.88;;
53409;SDS011;66590;50.734;4.246;2023-07-20T09:08:08;5.88;;;4.95;;
53409;SDS011;66590;50.734;4.246;2023-07-20T09:10:35;4.90;;;4.47;;
53409;SDS011;66590;50.734;4.246;2023-07-20T09:13:02;5.90;;;4.40;;
53409;SDS011;66590;50.734;4.246;2023-07-20T09:15:29;4.82;;;4.25;;
53409;SDS011;66590;50.734;4.246;2023-07-20T09:18:00;4.75;;;4.45;;
53409;SDS011;66590;50.734;4.246;2023-07-20T09:20:28;5.35;;;4.10;;
53409;SDS011;66590;50.734;4.246;2023-07-20T09:22:58;5.43;;;4.13;;
53409;SDS011;66590;50.734;4.246;2023-07-20T09:25:26;4.53;;;4.22;;
53409;SDS011;66590;50.734;4.246;2023-07-20T09:27:56;4.20;;;3.60;;
53409;SDS011;66590;50.734;4.246;2023-07-20T09:30:28;4.70;;;4.40;;
53409;SDS011;66590;50.734;4.246;2023-07-20T09:32:59;6.45;;;4.68;;
53409;SDS011;66590;50.734;4.246;2023-07-20T09:35:27;5.65;;;4.20;;
53409;SDS011;66590;50.734;4.246;2023-07-20T09:38:06;4.30;;;4.00;;
53409;SDS011;66590;50.734;4.246;2023-07-20T09:40:37;4.35;;;4.03;;
53409;SDS011;66590;50.734;4.246;2023-07-20T09:43:07;5.35;;;4.20;;
53409;SDS011;66590;50.734;4.246;2023-07-20T09:45:41;4.88;;;3.80;;
53409;SDS011;66590;50.734;4.246;2023-07-20T09:48:12;4.22;;;3.92;;
53409;SDS011;66590;50.734;4.246;2023-07-20T09:50:43;4.75;;;4.35;;
53409;SDS011;66590;50.734;4.246;2023-07-20T09:53:16;5.65;;;4.32;;
53409;SDS011;66590;50.734;4.246;2023-07-20T09:55:44;4.63;;;4.22;;
53409;SDS011;66590;50.734;4.246;2023-07-20T09:58:11;4.18;;;3.80;;
53409;SDS011;66590;50.734;4.246;2023-07-20T10:00:39;5.97;;;5.47;;
53409;SDS011;66590;50.734;4.246;2023-07-20T10:03:09;5.13;;;4.55;;
53409;SDS011;66590;50.734;4.246;2023-07-20T10:05:47;5.43;;;4.80;;
53409;SDS011;66590;50.734;4.246;2023-07-20T10:08:18;5.80;;;5.20;;
53409;SDS011;66590;50.734;4.246;2023-07-20T10:10:49;5.82;;;5.30;;
53409;SDS011;66590;50.734;4.246;2023-07-20T10:13:17;6.63;;;5.80;;
53409;SDS011;66590;50.734;4.246;2023-07-20T10:15:46;5.63;;;5.10;;
53409;SDS011;66590;50.734;4.246;2023-07-20T10:18:17;7.35;;;5.97;;
53409;SDS011;66590;50.734;4.246;2023-07-20T10:20:53;6.40;;;5.90;;
53409;SDS011;66590;50.734;4.246;2023-07-20T10:23:24;6.20;;;5.57;;
53409;SDS011;66590;50.734;4.246;2023-07-20T10:25:53;6.25;;;5.65;;
53409;SDS011;66590;50.734;4.246;2023-07-20T10:28:21;5.70;;;5.00;;
53409;SDS011;66590;50.734;4.246;2023-07-20T10:30:49;6.45;;;4.70;;
53409;SDS011;66590;50.734;4.246;2023-07-20T10:33:16;5.85;;;4.75;;
53409;SDS011;66590;50.734;4.246;2023-07-20T10:35:50;4.40;;;4.00;;
53409;SDS011;66590;50.734;4.246;2023-07-20T10:38:19;4.65;;;4.20;;
53409;SDS011;66590;50.734;4.246;2023-07-20T10:40:53;4.60;;;4.20;;
53409;SDS011;66590;50.734;4.246;2023-07-20T10:43:21;5.30;;;4.80;;
53409;SDS011;66590;50.734;4.246;2023-07-20T10:45:49;5.90;;;4.43;;
53409;SDS011;66590;50.734;4.246;2023-07-20T10:48:18;5.07;;;4.25;;
53409;SDS011;66590;50.734;4.246;2023-07-20T10:50:46;4.95;;;4.03;;
53409;SDS011;66590;50.734;4.246;2023-07-20T10:53:37;5.10;;;3.80;;
53409;SDS011;66590;50.734;4.246;2023-07-20T10:56:08;4.22;;;3.58;;
53409;SDS011;66590;50.734;4.246;2023-07-20T10:58:37;4.97;;;3.40;;
53409;SDS011;66590;50.734;4.246;2023-07-20T11:01:05;4.68;;;3.13;;
53409;SDS011;66590;50.734;4.246;2023-07-20T11:03:32;4.60;;;3.40;;
53409;SDS011;66590;50.734;4.246;2023-07-20T11:09:05;3.30;;;3.00;;
53409;SDS011;66590;50.734;4.246;2023-07-20T11:11:35;5.32;;;3.53;;
53409;SDS011;66590;50.734;4.246;2023-07-20T11:14:04;4.10;;;3.70;;
53409;SDS011;66590;50.734;4.246;2023-07-20T11:16:32;4.05;;;3.75;;
53409;SDS011;66590;50.734;4.246;2023-07-20T11:19:00;4.68;;;3.75;;
53409;SDS011;66590;50.734;4.246;2023-07-20T11:21:28;3.80;;;3.33;;
53409;SDS011;66590;50.734;4.246;2023-07-20T11:23:56;3.50;;;3.13;;
53409;SDS011;66590;50.734;4.246;2023-07-20T11:26:23;3.75;;;3.22;;
53409;SDS011;66590;50.734;4.246;2023-07-20T11:28:50;3.78;;;3.35;;
53409;SDS011;66590;50.734;4.246;2023-07-20T11:31:17;3.60;;;3.30;;
53409;SDS011;66590;50.734;4.246;2023-07-20T11:33:44;6.25;;;3.33;;
53409;SDS011;66590;50.734;4.246;2023-07-20T11:36:12;3.47;;;3.17;;
53409;SDS011;66590;50.734;4.246;2023-07-20T11:38:42;5.78;;;2.90;;
53409;SDS011;66590;50.734;4.246;2023-07-20T11:41:10;3.90;;;2.97;;
53409;SDS011;66590;50.734;4.246;2023-07-20T11:43:38;5.00;;;3.03;;
53409;SDS011;66590;50.734;4.246;2023-07-20T11:46:07;4.30;;;2.90;;
53409;SDS011;66590;50.734;4.246;2023-07-20T11:48:35;4.90;;;2.92;;
53409;SDS011;66590;50.734;4.246;2023-07-20T11:51:02;4.05;;;3.20;;
53409;SDS011;66590;50.734;4.246;2023-07-20T11:53:29;4.80;;;2.70;;
53409;SDS011;66590;50.734;4.246;2023-07-20T11:55:56;3.83;;;3.20;;
53409;SDS011;66590;50.734;4.246;2023-07-20T11:58:27;4.78;;;3.00;;
53409;SDS011;66590;50.734;4.246;2023-07-20T12:00:54;3.53;;;3.05;;
53409;SDS011;66590;50.734;4.246;2023-07-20T12:03:22;3.35;;;2.92;;
53409;SDS011;66590;50.734;4.246;2023-07-20T12:05:49;4.18;;;2.60;;
53409;SDS011;66590;50.734;4.246;2023-07-20T12:08:21;2.55;;;2.38;;
53409;SDS011;66590;50.734;4.246;2023-07-20T12:10:48;4.05;;;2.40;;
53409;SDS011;66590;50.734;4.246;2023-07-20T12:13:15;4.50;;;2.63;;
53409;SDS011;66590;50.734;4.246;2023-07-20T12:15:43;2.97;;;2.28;;
53409;SDS011;66590;50.734;4.246;2023-07-20T12:18:10;3.05;;;2.33;;
53409;SDS011;66590;50.734;4.246;2023-07-20T12:20:38;2.53;;;2.28;;
53409;SDS011;66590;50.734;4.246;2023-07-20T12:23:08;4.68;;;2.53;;
53409;SDS011;66590;50.734;4.246;2023-07-20T12:25:36;2.72;;;2.40;;
53409;SDS011;66590;50.734;4.246;2023-07-20T12:28:04;4.72;;;2.13;;
53409;SDS011;66590;50.734;4.246;2023-07-20T12:30:32;3.97;;;2.65;;
53409;SDS011;66590;50.734;4.246;2023-07-20T12:33:01;3.55;;;2.50;;
53409;SDS011;66590;50.734;4.246;2023-07-20T12:35:29;3.00;;;2.58;;
53409;SDS011;66590;50.734;4.246;2023-07-20T12:37:56;2.53;;;2.25;;
53409;SDS011;66590;50.734;4.246;2023-07-20T12:40:23;3.35;;;2.30;;
53409;SDS011;66590;50.734;4.246;2023-07-20T12:42:50;2.80;;;2.22;;
53409;SDS011;66590;50.734;4.246;2023-07-20T12:45:18;2.95;;;2.10;;
53409;SDS011;66590;50.734;4.246;2023-07-20T12:47:45;3.72;;;2.33;;
53409;SDS011;66590;50.734;4.246;2023-07-20T12:50:13;5.05;;;2.30;;
53409;SDS011;66590;50.734;4.246;2023-07-20T12:52:40;3.63;;;2.50;;
53409;SDS011;66590;50.734;4.246;2023-07-20T12:55:08;2.33;;;2.08;;
53409;SDS011;66590;50.734;4.246;2023-07-20T12:57:36;4.15;;;2.25;;
53409;SDS011;66590;50.734;4.246;2023-07-20T13:00:03;3.28;;;2.35;;
53409;SDS011;66590;50.734;4.246;2023-07-20T13:02:32;3.33;;;2.65;;
53409;SDS011;66590;50.734;4.246;2023-07-20T13:04:59;3.40;;;2.67;;
53409;SDS011;66590;50.734;4.246;2023-07-20T13:07:30;5.75;;;2.88;;
53409;SDS011;66590;50.734;4.246;2023-07-20T13:10:01;4.28;;;2.53;;
53409;SDS011;66590;50.734;4.246;2023-07-20T13:12:30;5.05;;;2.65;;
53409;SDS011;66590;50.734;4.246;2023-07-20T13:14:57;4.15;;;2.55;;
53409;SDS011;66590;50.734;4.246;2023-07-20T13:17:25;3.00;;;2.70;;
53409;SDS011;66590;50.734;4.246;2023-07-20T13:19:52;3.60;;;2.60;;
53409;SDS011;66590;50.734;4.246;2023-07-20T13:22:19;2.60;;;2.13;;
53409;SDS011;66590;50.734;4.246;2023-07-20T13:24:47;3.92;;;2.50;;
53409;SDS011;66590;50.734;4.246;2023-07-20T13:27:14;2.65;;;2.20;;
53409;SDS011;66590;50.734;4.246;2023-07-20T13:29:41;4.95;;;2.67;;
53409;SDS011;66590;50.734;4.246;2023-07-20T13:32:08;2.75;;;2.28;;
53409;SDS011;66590;50.734;4.246;2023-07-20T13:34:36;3.05;;;2.75;;
53409;SDS011;66590;50.734;4.246;2023-07-20T13:37:05;4.38;;;3.97;;
53409;SDS011;66590;50.734;4.246;2023-07-20T13:39:32;4.93;;;3.83;;
53409;SDS011;66590;50.734;4.246;2023-07-20T13:42:01;5.13;;;4.65;;
53409;SDS011;66590;50.734;4.246;2023-07-20T13:44:27;4.60;;;4.18;;
53409;SDS011;66590;50.734;4.246;2023-07-20T13:46:55;4.80;;;4.30;;
53409;SDS011;66590;50.734;4.246;2023-07-20T13:49:43;4.50;;;4.10;;
53409;SDS011;66590;50.734;4.246;2023-07-20T13:52:13;4.60;;;3.80;;
53409;SDS011;66590;50.734;4.246;2023-07-20T13:54:43;4.10;;;3.70;;
53409;SDS011;66590;50.734;4.246;2023-07-20T13:57:14;3.92;;;3.63;;
53409;SDS011;66590;50.734;4.246;2023-07-20T13:59:41;4.25;;;3.50;;
53409;SDS011;66590;50.734;4.246;2023-07-20T14:02:09;5.78;;;3.83;;
53409;SDS011;66590;50.734;4.246;2023-07-20T14:04:39;9.15;;;3.85;;
53409;SDS011;66590;50.734;4.246;2023-07-20T14:07:06;4.43;;;3.45;;
53409;SDS011;66590;50.734;4.246;2023-07-20T14:09:34;4.60;;;3.20;;
53409;SDS011;66590;50.734;4.246;2023-07-20T14:12:01;4.03;;;3.30;;
53409;SDS011;66590;50.734;4.246;2023-07-20T14:14:33;8.25;;;3.35;;
53409;SDS011;66590;50.734;4.246;2023-07-20T14:17:00;5.47;;;3.08;;
53409;SDS011;66590;50.734;4.246;2023-07-20T14:19:27;6.43;;;3.70;;
53409;SDS011;66590;50.734;4.246;2023-07-20T14:21:54;3.67;;;3.10;;
53409;SDS011;66590;50.734;4.246;2023-07-20T14:24:21;3.15;;;2.83;;
53409;SDS011;66590;50.734;4.246;2023-07-20T14:26:48;3.88;;;3.05;;
53409;SDS011;66590;50.734;4.246;2023-07-20T14:29:17;5.43;;;3.40;;
53409;SDS011;66590;50.734;4.246;2023-07-20T14:31:46;5.72;;;3.35;;
53409;SDS011;66590;50.734;4.246;2023-07-20T14:34:13;6.40;;;3.40;;
53409;SDS011;66590;50.734;4.246;2023-07-20T14:36:40;4.93;;;3.10;;
53409;SDS011;66590;50.734;4.246;2023-07-20T14:39:08;3.38;;;2.95;;
53409;SDS011;66590;50.734;4.246;2023-07-20T14:41:35;6.22;;;2.90;;
53409;SDS011;66590;50.734;4.246;2023-07-20T14:44:02;3.35;;;2.90;;
53409;SDS011;66590;50.734;4.246;2023-07-20T14:46:29;4.85;;;3.05;;
53409;SDS011;66590;50.734;4.246;2023-07-20T14:48:57;3.60;;;2.80;;
53409;SDS011;66590;50.734;4.246;2023-07-20T14:51:24;4.13;;;2.88;;
53409;SDS011;66590;50.734;4.246;2023-07-20T14:54:03;4.40;;;3.00;;
53409;SDS011;66590;50.734;4.246;2023-07-20T14:56:30;4.75;;;3.05;;